AR56 weather

Amos Airport
Oil Trough, Arkansas, United States

Public forecast

Using degrees Fahrenheit for public forecast. Weather courtesy of forecast.io.

METAR (pilot weather report)

Closest report is Batesville Regional Airport, 12.4 nm (23.0 km) NW. Retrieved 2019/09/19 04:56 UTC (15 minutes ago):

KBVX 190456Z AUTO 00000KT CLR 23/19 A3000 RMK AO2 SLP156 T02280194 PWINO RVRNO $

TAF (pilot weather forecast)

Forecast is more than 12 hours old.

Closest forecast is Jonesboro Municipal Airport, 40.7 nm (75.4 km) ENE. Retrieved 2019/09/18 00:24 UTC (1 day ago):

TAF KJBR 182322Z 1900/1924 05005KT P6SM FEW250 FM190100 VRB02KT P6SM SKC FM191500 13006KT P6SM FEW050 FEW250 FM191800 13007KT P6SM SKC